sensor_id;sensor_type;location;lat;lon;timestamp;pressure;altitude;pressure_sealevel;temperature;humidity
80837;BME280;70251;60.008;30.404;2023-11-22T00:01:05;102027.84;;;-1.77;62.04
80837;BME280;70251;60.008;30.404;2023-11-22T00:03:33;102021.75;;;-1.78;61.98
80837;BME280;70251;60.008;30.404;2023-11-22T00:06:01;102030.47;;;-1.79;61.44
80837;BME280;70251;60.008;30.404;2023-11-22T00:08:27;102028.75;;;-1.80;61.40
80837;BME280;70251;60.008;30.404;2023-11-22T00:10:52;102030.63;;;-1.89;61.68
80837;BME280;70251;60.008;30.404;2023-11-22T00:13:18;102027.28;;;-1.97;62.40
80837;BME280;70251;60.008;30.404;2023-11-22T00:15:44;102021.34;;;-2.07;62.29
80837;BME280;70251;60.008;30.404;2023-11-22T00:18:12;102021.41;;;-2.11;62.36
80837;BME280;70251;60.008;30.404;2023-11-22T00:20:40;102032.97;;;-2.26;62.74
80837;BME280;70251;60.008;30.404;2023-11-22T00:23:06;102025.19;;;-2.32;62.65
80837;BME280;70251;60.008;30.404;2023-11-22T00:25:31;102021.66;;;-2.29;62.38
80837;BME280;70251;60.008;30.404;2023-11-22T00:27:59;102018.22;;;-2.31;62.12
80837;BME280;70251;60.008;30.404;2023-11-22T00:30:24;102010.47;;;-2.38;62.73
80837;BME280;70251;60.008;30.404;2023-11-22T00:32:50;102005.28;;;-2.39;62.88
80837;BME280;70251;60.008;30.404;2023-11-22T00:35:17;102006.06;;;-2.32;62.53
80837;BME280;70251;60.008;30.404;2023-11-22T00:37:42;102007.84;;;-2.38;63.13
80837;BME280;70251;60.008;30.404;2023-11-22T00:40:08;102014.88;;;-2.43;62.50
80837;BME280;70251;60.008;30.404;2023-11-22T00:42:38;102011.41;;;-2.42;62.59
80837;BME280;70251;60.008;30.404;2023-11-22T00:45:06;102017.44;;;-2.38;62.30
80837;BME280;70251;60.008;30.404;2023-11-22T00:47:33;102017.59;;;-2.47;63.51
80837;BME280;70251;60.008;30.404;2023-11-22T00:49:59;102021.19;;;-2.57;63.18
80837;BME280;70251;60.008;30.404;2023-11-22T00:52:25;102014.25;;;-2.58;63.29
80837;BME280;70251;60.008;30.404;2023-11-22T00:54:50;102007.31;;;-2.61;62.96
80837;BME280;70251;60.008;30.404;2023-11-22T00:57:21;102004.69;;;-2.58;63.21
80837;BME280;70251;60.008;30.404;2023-11-22T00:59:47;102004.66;;;-2.56;62.58
80837;BME280;70251;60.008;30.404;2023-11-22T01:02:13;101999.34;;;-2.53;63.11
80837;BME280;70251;60.008;30.404;2023-11-22T01:04:39;102006.22;;;-2.45;63.01
80837;BME280;70251;60.008;30.404;2023-11-22T01:07:06;102000.00;;;-2.36;62.28
80837;BME280;70251;60.008;30.404;2023-11-22T01:09:37;101996.34;;;-2.24;62.86
80837;BME280;70251;60.008;30.404;2023-11-22T01:12:03;102003.28;;;-2.23;62.70
80837;BME280;70251;60.008;30.404;2023-11-22T01:14:29;101999.81;;;-2.22;62.61
80837;BME280;70251;60.008;30.404;2023-11-22T01:16:55;101998.00;;;-2.17;62.01
80837;BME280;70251;60.008;30.404;2023-11-22T01:19:21;101994.34;;;-2.07;61.72
80837;BME280;70251;60.008;30.404;2023-11-22T01:21:47;101993.38;;;-2.00;62.14
80837;BME280;70251;60.008;30.404;2023-11-22T01:24:16;101996.81;;;-1.98;61.75
80837;BME280;70251;60.008;30.404;2023-11-22T01:26:42;101996.72;;;-1.92;61.79
80837;BME280;70251;60.008;30.404;2023-11-22T01:29:08;101996.63;;;-1.86;61.39
80837;BME280;70251;60.008;30.404;2023-11-22T01:31:37;102002.69;;;-1.84;61.80
80837;BME280;70251;60.008;30.404;2023-11-22T01:34:02;102001.81;;;-1.85;61.41
80837;BME280;70251;60.008;30.404;2023-11-22T01:36:30;102001.78;;;-1.82;61.71
80837;BME280;70251;60.008;30.404;2023-11-22T01:38:57;102006.94;;;-1.77;61.62
80837;BME280;70251;60.008;30.404;2023-11-22T01:41:22;102006.81;;;-1.71;61.42
80837;BME280;70251;60.008;30.404;2023-11-22T01:43:48;102010.19;;;-1.65;61.07
80837;BME280;70251;60.008;30.404;2023-11-22T01:46:22;101994.34;;;-1.57;61.07
80837;BME280;70251;60.008;30.404;2023-11-22T01:48:53;102006.56;;;-1.56;60.86
80837;BME280;70251;60.008;30.404;2023-11-22T01:51:21;102009.09;;;-1.53;61.36
80837;BME280;70251;60.008;30.404;2023-11-22T01:53:48;101996.03;;;-1.53;60.98
80837;BME280;70251;60.008;30.404;2023-11-22T01:56:15;101991.91;;;-1.65;61.09
80837;BME280;70251;60.008;30.404;2023-11-22T01:58:43;102020.78;;;-1.72;61.10
80837;BME280;70251;60.008;30.404;2023-11-22T02:01:10;102019.09;;;-1.76;62.00
80837;BME280;70251;60.008;30.404;2023-11-22T02:03:44;102013.09;;;-1.83;61.37
80837;BME280;70251;60.008;30.404;2023-11-22T02:06:11;102014.94;;;-1.88;61.49
80837;BME280;70251;60.008;30.404;2023-11-22T02:08:36;102018.34;;;-1.81;61.41
80837;BME280;70251;60.008;30.404;2023-11-22T02:11:02;102020.84;;;-1.77;62.26
80837;BME280;70251;60.008;30.404;2023-11-22T02:13:32;102019.81;;;-1.67;61.89
80837;BME280;70251;60.008;30.404;2023-11-22T02:16:01;102023.22;;;-1.60;61.11
80837;BME280;70251;60.008;30.404;2023-11-22T02:18:28;102022.19;;;-1.53;60.87
80837;BME280;70251;60.008;30.404;2023-11-22T02:20:57;102022.16;;;-1.50;61.10
80837;BME280;70251;60.008;30.404;2023-11-22T02:23:23;102016.97;;;-1.53;61.32
80837;BME280;70251;60.008;30.404;2023-11-22T02:25:48;102011.72;;;-1.51;61.56
80837;BME280;70251;60.008;30.404;2023-11-22T02:28:14;102024.66;;;-1.44;61.05
80837;BME280;70251;60.008;30.404;2023-11-22T02:30:40;102014.94;;;-1.37;60.66
80837;BME280;70251;60.008;30.404;2023-11-22T02:33:07;102015.75;;;-1.34;60.72
80837;BME280;70251;60.008;30.404;2023-11-22T02:35:33;102014.81;;;-1.31;61.37
80837;BME280;70251;60.008;30.404;2023-11-22T02:37:59;102012.13;;;-1.27;61.30
80837;BME280;70251;60.008;30.404;2023-11-22T02:40:26;102011.19;;;-1.23;60.35
80837;BME280;70251;60.008;30.404;2023-11-22T02:42:53;102012.84;;;-1.19;60.96
80837;BME280;70251;60.008;30.404;2023-11-22T02:45:23;102010.19;;;-1.16;60.93
80837;BME280;70251;60.008;30.404;2023-11-22T02:47:48;102011.94;;;-1.16;60.12
80837;BME280;70251;60.008;30.404;2023-11-22T02:50:15;102005.91;;;-1.20;60.83
80837;BME280;70251;60.008;30.404;2023-11-22T02:52:41;102006.81;;;-1.22;60.97
80837;BME280;70251;60.008;30.404;2023-11-22T02:55:08;102005.06;;;-1.23;60.32
80837;BME280;70251;60.008;30.404;2023-11-22T02:57:38;101993.09;;;-1.35;60.63
80837;BME280;70251;60.008;30.404;2023-11-22T03:00:06;101996.59;;;-1.36;60.82
80837;BME280;70251;60.008;30.404;2023-11-22T03:02:33;101996.69;;;-1.42;60.22
80837;BME280;70251;60.008;30.404;2023-11-22T03:04:59;102002.34;;;-1.66;60.32
80837;BME280;70251;60.008;30.404;2023-11-22T03:07:26;101994.81;;;-1.81;61.43
80837;BME280;70251;60.008;30.404;2023-11-22T03:09:52;101999.16;;;-1.82;60.97
80837;BME280;70251;60.008;30.404;2023-11-22T03:12:18;102003.47;;;-1.79;61.14
80837;BME280;70251;60.008;30.404;2023-11-22T03:14:46;102003.38;;;-1.73;61.51
80837;BME280;70251;60.008;30.404;2023-11-22T03:17:14;101993.03;;;-1.79;61.17
80837;BME280;70251;60.008;30.404;2023-11-22T03:19:40;101997.38;;;-1.80;61.40
80837;BME280;70251;60.008;30.404;2023-11-22T03:22:06;101999.34;;;-1.92;61.06
80837;BME280;70251;60.008;30.404;2023-11-22T03:24:32;101991.50;;;-1.94;60.87
80837;BME280;70251;60.008;30.404;2023-11-22T03:27:06;101984.53;;;-1.93;60.90
80837;BME280;70251;60.008;30.404;2023-11-22T03:29:32;101987.16;;;-1.95;61.40
80837;BME280;70251;60.008;30.404;2023-11-22T03:32:00;101981.91;;;-1.93;61.34
80837;BME280;70251;60.008;30.404;2023-11-22T03:34:26;101974.13;;;-1.96;61.05
80837;BME280;70251;60.008;30.404;2023-11-22T03:36:52;101976.69;;;-1.92;61.12
80837;BME280;70251;60.008;30.404;2023-11-22T03:39:17;101969.63;;;-1.88;60.78
80837;BME280;70251;60.008;30.404;2023-11-22T03:41:43;101982.97;;;-2.06;60.82
80837;BME280;70251;60.008;30.404;2023-11-22T03:44:09;101977.94;;;-2.17;61.09
80837;BME280;70251;60.008;30.404;2023-11-22T03:46:38;101981.34;;;-2.12;60.68
80837;BME280;70251;60.008;30.404;2023-11-22T03:49:05;101986.59;;;-2.13;61.28
80837;BME280;70251;60.008;30.404;2023-11-22T03:51:34;101978.75;;;-2.15;60.77
80837;BME280;70251;60.008;30.404;2023-11-22T03:54:01;101983.41;;;-2.33;61.07
80837;BME280;70251;60.008;30.404;2023-11-22T03:56:28;101980.00;;;-2.37;60.88
80837;BME280;70251;60.008;30.404;2023-11-22T03:58:54;101979.03;;;-2.30;61.19
80837;BME280;70251;60.008;30.404;2023-11-22T04:01:20;101977.41;;;-2.39;61.17
80837;BME280;70251;60.008;30.404;2023-11-22T04:03:49;101989.75;;;-2.50;60.96
80837;BME280;70251;60.008;30.404;2023-11-22T04:06:15;101990.03;;;-2.71;61.91
80837;BME280;70251;60.008;30.404;2023-11-22T04:08:45;101983.91;;;-2.70;61.73
80837;BME280;70251;60.008;30.404;2023-11-22T04:11:15;101986.50;;;-2.68;61.84
80837;BME280;70251;60.008;30.404;2023-11-22T04:13:43;101985.78;;;-2.78;61.57
80837;BME280;70251;60.008;30.404;2023-11-22T04:16:09;101985.84;;;-2.82;62.16
80837;BME280;70251;60.008;30.404;2023-11-22T04:18:40;101987.56;;;-2.83;61.90
80837;BME280;70251;60.008;30.404;2023-11-22T04:21:08;101982.44;;;-2.89;61.66
80837;BME280;70251;60.008;30.404;2023-11-22T04:23:35;101979.81;;;-2.89;61.98
80837;BME280;70251;60.008;30.404;2023-11-22T04:26:02;101978.94;;;-2.89;61.85
80837;BME280;70251;60.008;30.404;2023-11-22T04:28:28;101987.72;;;-2.93;61.60
80837;BME280;70251;60.008;30.404;2023-11-22T04:30:56;101981.56;;;-2.88;61.43
80837;BME280;70251;60.008;30.404;2023-11-22T04:33:22;101978.97;;;-2.88;61.08
80837;BME280;70251;60.008;30.404;2023-11-22T04:35:49;101977.22;;;-2.89;61.47
80837;BME280;70251;60.008;30.404;2023-11-22T04:38:14;101977.22;;;-2.89;61.65
80837;BME280;70251;60.008;30.404;2023-11-22T04:40:40;101979.00;;;-2.92;61.05
80837;BME280;70251;60.008;30.404;2023-11-22T04:43:08;101978.16;;;-2.94;61.53
80837;BME280;70251;60.008;30.404;2023-11-22T04:45:34;101979.88;;;-2.93;61.39
80837;BME280;70251;60.008;30.404;2023-11-22T04:48:00;101972.94;;;-2.94;61.88
80837;BME280;70251;60.008;30.404;2023-11-22T04:50:26;101981.69;;;-3.00;61.58
80837;BME280;70251;60.008;30.404;2023-11-22T04:52:51;101976.59;;;-3.07;61.64
80837;BME280;70251;60.008;30.404;2023-11-22T04:55:17;101974.88;;;-3.10;61.64
80837;BME280;70251;60.008;30.404;2023-11-22T04:57:48;101980.94;;;-3.08;61.57
80837;BME280;70251;60.008;30.404;2023-11-22T05:00:14;101968.66;;;-3.00;61.39
80837;BME280;70251;60.008;30.404;2023-11-22T05:02:40;101979.09;;;-2.98;61.45
80837;BME280;70251;60.008;30.404;2023-11-22T05:05:09;101977.28;;;-2.95;61.89
80837;BME280;70251;60.008;30.404;2023-11-22T05:07:38;101975.56;;;-2.94;61.40
80837;BME280;70251;60.008;30.404;2023-11-22T05:10:05;101985.00;;;-2.84;61.37
80837;BME280;70251;60.008;30.404;2023-11-22T05:12:31;101977.13;;;-2.83;61.08
80837;BME280;70251;60.008;30.404;2023-11-22T05:14:57;101970.00;;;-2.70;61.65
80837;BME280;70251;60.008;30.404;2023-11-22T05:17:23;101964.56;;;-2.54;61.01
80837;BME280;70251;60.008;30.404;2023-11-22T05:19:49;101965.22;;;-2.40;60.93
80837;BME280;70251;60.008;30.404;2023-11-22T05:22:16;101963.31;;;-2.28;60.28
80837;BME280;70251;60.008;30.404;2023-11-22T05:24:41;101959.63;;;-2.15;61.07
80837;BME280;70251;60.008;30.404;2023-11-22T05:27:08;101966.47;;;-2.08;60.73
80837;BME280;70251;60.008;30.404;2023-11-22T05:29:34;101965.50;;;-2.01;60.49
80837;BME280;70251;60.008;30.404;2023-11-22T05:32:01;101962.94;;;-2.06;59.75
80837;BME280;70251;60.008;30.404;2023-11-22T05:34:31;101960.56;;;-2.19;59.90
80837;BME280;70251;60.008;30.404;2023-11-22T05:36:57;101962.50;;;-2.33;60.34
80837;BME280;70251;60.008;30.404;2023-11-22T05:39:24;101964.16;;;-2.26;60.24
80837;BME280;70251;60.008;30.404;2023-11-22T05:41:51;101949.28;;;-2.23;60.73
80837;BME280;70251;60.008;30.404;2023-11-22T05:44:17;101954.44;;;-2.18;60.09
80837;BME280;70251;60.008;30.404;2023-11-22T05:46:42;101960.47;;;-2.15;59.92
80837;BME280;70251;60.008;30.404;2023-11-22T05:49:08;101959.72;;;-2.23;59.85
80837;BME280;70251;60.008;30.404;2023-11-22T05:51:36;101955.50;;;-2.30;60.64
80837;BME280;70251;60.008;30.404;2023-11-22T05:54:07;101957.28;;;-2.33;60.73
80837;BME280;70251;60.008;30.404;2023-11-22T05:56:32;101953.81;;;-2.34;60.15
80837;BME280;70251;60.008;30.404;2023-11-22T05:58:59;101953.72;;;-2.28;60.25
80837;BME280;70251;60.008;30.404;2023-11-22T06:01:25;101951.78;;;-2.15;60.43
80837;BME280;70251;60.008;30.404;2023-11-22T06:03:53;101945.63;;;-2.13;60.38
80837;BME280;70251;60.008;30.404;2023-11-22T06:06:19;101954.28;;;-2.08;59.42
80837;BME280;70251;60.008;30.404;2023-11-22T06:08:47;101948.13;;;-2.05;59.79
80837;BME280;70251;60.008;30.404;2023-11-22T06:11:13;101950.72;;;-2.02;59.75
80837;BME280;70251;60.008;30.404;2023-11-22T06:13:41;101951.59;;;-2.03;59.49
80837;BME280;70251;60.008;30.404;2023-11-22T06:16:08;101949.84;;;-2.03;59.45
80837;BME280;70251;60.008;30.404;2023-11-22T06:18:35;101949.81;;;-2.01;58.86
80837;BME280;70251;60.008;30.404;2023-11-22T06:21:09;101944.56;;;-2.01;58.30
80837;BME280;70251;60.008;30.404;2023-11-22T06:23:35;101955.84;;;-1.98;58.94
80837;BME280;70251;60.008;30.404;2023-11-22T06:26:02;101945.34;;;-1.95;58.15
80837;BME280;70251;60.008;30.404;2023-11-22T06:28:28;101954.03;;;-1.93;58.62
80837;BME280;70251;60.008;30.404;2023-11-22T06:30:55;101944.41;;;-1.91;59.01
80837;BME280;70251;60.008;30.404;2023-11-22T06:33:21;101946.88;;;-1.82;58.38
80837;BME280;70251;60.008;30.404;2023-11-22T06:35:47;101943.19;;;-1.72;58.63
80837;BME280;70251;60.008;30.404;2023-11-22T06:38:12;101952.00;;;-1.77;58.49
80837;BME280;70251;60.008;30.404;2023-11-22T06:40:38;101938.91;;;-1.76;58.09
80837;BME280;70251;60.008;30.404;2023-11-22T06:43:04;101945.00;;;-1.75;57.14
80837;BME280;70251;60.008;30.404;2023-11-22T06:45:30;101940.78;;;-1.85;58.03
80837;BME280;70251;60.008;30.404;2023-11-22T06:48:00;101940.97;;;-1.96;57.37
80837;BME280;70251;60.008;30.404;2023-11-22T06:50:26;101939.31;;;-2.00;58.33
80837;BME280;70251;60.008;30.404;2023-11-22T06:52:52;101947.25;;;-2.06;58.21
80837;BME280;70251;60.008;30.404;2023-11-22T06:55:19;101943.00;;;-2.11;58.40
80837;BME280;70251;60.008;30.404;2023-11-22T06:57:45;101928.34;;;-2.20;58.62
80837;BME280;70251;60.008;30.404;2023-11-22T07:00:11;101927.72;;;-2.36;58.60
80837;BME280;70251;60.008;30.404;2023-11-22T07:02:42;101930.53;;;-2.48;58.91
80837;BME280;70251;60.008;30.404;2023-11-22T07:05:08;101938.63;;;-2.67;59.66
80837;BME280;70251;60.008;30.404;2023-11-22T07:07:36;101934.31;;;-2.70;59.53
80837;BME280;70251;60.008;30.404;2023-11-22T07:10:02;101937.81;;;-2.71;59.65
80837;BME280;70251;60.008;30.404;2023-11-22T07:12:29;101942.28;;;-2.80;59.80
80837;BME280;70251;60.008;30.404;2023-11-22T07:14:55;101937.19;;;-2.88;60.17
80837;BME280;70251;60.008;30.404;2023-11-22T07:17:21;101938.97;;;-2.90;59.81
80837;BME280;70251;60.008;30.404;2023-11-22T07:19:48;101940.72;;;-2.92;59.94
80837;BME280;70251;60.008;30.404;2023-11-22T07:22:17;101939.00;;;-2.94;60.01
80837;BME280;70251;60.008;30.404;2023-11-22T07:24:45;101936.41;;;-2.94;60.17
80837;BME280;70251;60.008;30.404;2023-11-22T07:27:13;101935.63;;;-3.01;60.38
80837;BME280;70251;60.008;30.404;2023-11-22T07:29:40;101933.84;;;-2.99;60.67
80837;BME280;70251;60.008;30.404;2023-11-22T07:32:06;101942.53;;;-2.97;60.37
80837;BME280;70251;60.008;30.404;2023-11-22T07:34:32;101930.44;;;-3.05;60.63
80837;BME280;70251;60.008;30.404;2023-11-22T07:36:59;101931.28;;;-3.03;60.59
80837;BME280;70251;60.008;30.404;2023-11-22T07:39:24;101928.72;;;-3.05;60.85
80837;BME280;70251;60.008;30.404;2023-11-22T07:41:56;101923.41;;;-2.99;61.43
80837;BME280;70251;60.008;30.404;2023-11-22T07:44:22;101921.63;;;-2.94;61.52
80837;BME280;70251;60.008;30.404;2023-11-22T07:46:50;101919.91;;;-2.98;61.33
80837;BME280;70251;60.008;30.404;2023-11-22T07:49:18;101917.38;;;-3.02;60.72
80837;BME280;70251;60.008;30.404;2023-11-22T07:51:44;101916.44;;;-2.98;60.99
80837;BME280;70251;60.008;30.404;2023-11-22T07:54:18;101915.41;;;-2.87;60.90
80837;BME280;70251;60.008;30.404;2023-11-22T07:56:51;101912.75;;;-2.82;60.92
80837;BME280;70251;60.008;30.404;2023-11-22T07:59:18;101917.00;;;-2.75;61.02
80837;BME280;70251;60.008;30.404;2023-11-22T08:01:44;101909.97;;;-2.72;60.64
80837;BME280;70251;60.008;30.404;2023-11-22T08:04:10;101910.78;;;-2.67;61.25
80837;BME280;70251;60.008;30.404;2023-11-22T08:06:36;101898.53;;;-2.63;60.32
80837;BME280;70251;60.008;30.404;2023-11-22T08:09:02;101900.22;;;-2.58;60.72
80837;BME280;70251;60.008;30.404;2023-11-22T08:11:29;101896.56;;;-2.49;61.05
80837;BME280;70251;60.008;30.404;2023-11-22T08:13:55;101893.88;;;-2.43;60.52
80837;BME280;70251;60.008;30.404;2023-11-22T08:16:25;101896.44;;;-2.39;60.82
80837;BME280;70251;60.008;30.404;2023-11-22T08:18:52;101897.22;;;-2.35;60.32
80837;BME280;70251;60.008;30.404;2023-11-22T08:21:18;101892.00;;;-2.35;60.09
80837;BME280;70251;60.008;30.404;2023-11-22T08:23:46;101885.16;;;-2.42;60.12
80837;BME280;70251;60.008;30.404;2023-11-22T08:26:12;101888.69;;;-2.46;60.41
80837;BME280;70251;60.008;30.404;2023-11-22T08:28:39;101888.72;;;-2.48;60.64
80837;BME280;70251;60.008;30.404;2023-11-22T08:31:05;101895.50;;;-2.34;61.00
80837;BME280;70251;60.008;30.404;2023-11-22T08:33:35;101888.41;;;-2.29;60.67
80837;BME280;70251;60.008;30.404;2023-11-22T08:36:01;101879.88;;;-1.89;60.55
80837;BME280;70251;60.008;30.404;2023-11-22T08:38:28;101881.41;;;-1.33;61.03
80837;BME280;70251;60.008;30.404;2023-11-22T08:40:53;101870.53;;;-0.75;60.34
80837;BME280;70251;60.008;30.404;2023-11-22T08:43:20;101874.97;;;-0.07;58.90
80837;BME280;70251;60.008;30.404;2023-11-22T08:45:49;101850.59;;;0.53;58.20
80837;BME280;70251;60.008;30.404;2023-11-22T08:48:15;101839.06;;;1.15;57.22
80837;BME280;70251;60.008;30.404;2023-11-22T08:50:41;101833.31;;;1.58;56.76
80837;BME280;70251;60.008;30.404;2023-11-22T08:53:06;101833.19;;;1.07;54.81
80837;BME280;70251;60.008;30.404;2023-11-22T08:55:33;101836.59;;;0.22;55.58
80837;BME280;70251;60.008;30.404;2023-11-22T08:57:59;101841.81;;;-0.44;56.04
80837;BME280;70251;60.008;30.404;2023-11-22T09:00:25;101834.22;;;-0.90;57.39
80837;BME280;70251;60.008;30.404;2023-11-22T09:02:54;101838.53;;;-1.27;57.42
80837;BME280;70251;60.008;30.404;2023-11-22T09:05:20;101840.72;;;-1.49;58.67
80837;BME280;70251;60.008;30.404;2023-11-22T09:07:47;101827.16;;;-1.68;58.41
80837;BME280;70251;60.008;30.404;2023-11-22T09:10:13;101829.03;;;-1.74;58.49
80837;BME280;70251;60.008;30.404;2023-11-22T09:12:40;101833.38;;;-1.73;58.46
80837;BME280;70251;60.008;30.404;2023-11-22T09:15:11;101836.22;;;-1.84;58.53
80837;BME280;70251;60.008;30.404;2023-11-22T09:17:39;101829.72;;;-2.09;59.21
80837;BME280;70251;60.008;30.404;2023-11-22T09:20:18;101833.28;;;-2.14;59.17
80837;BME280;70251;60.008;30.404;2023-11-22T09:22:47;101830.81;;;-2.23;58.98
80837;BME280;70251;60.008;30.404;2023-11-22T09:25:17;101824.41;;;-2.06;60.17
80837;BME280;70251;60.008;30.404;2023-11-22T09:27:47;101820.34;;;-1.76;59.31
80837;BME280;70251;60.008;30.404;2023-11-22T09:30:15;101810.81;;;-1.79;58.99
80837;BME280;70251;60.008;30.404;2023-11-22T09:33:10;101809.84;;;-1.73;58.71
80837;BME280;70251;60.008;30.404;2023-11-22T09:35:37;101808.94;;;-1.71;58.34
80837;BME280;70251;60.008;30.404;2023-11-22T09:38:05;101813.41;;;-1.77;58.38
80837;BME280;70251;60.008;30.404;2023-11-22T09:40:47;101799.84;;;-1.97;59.01
80837;BME280;70251;60.008;30.404;2023-11-22T09:43:16;101803.63;;;-2.12;59.49
80837;BME280;70251;60.008;30.404;2023-11-22T09:45:44;101795.72;;;-1.66;59.80
80837;BME280;70251;60.008;30.404;2023-11-22T09:48:15;101799.31;;;-0.91;59.18
80837;BME280;70251;60.008;30.404;2023-11-22T09:50:57;101785.28;;;0.12;58.55
80837;BME280;70251;60.008;30.404;2023-11-22T09:53:36;101777.50;;;1.24;55.56
80837;BME280;70251;60.008;30.404;2023-11-22T09:56:07;101766.31;;;1.94;55.83
80837;BME280;70251;60.008;30.404;2023-11-22T09:58:34;101757.38;;;2.46;54.82
80837;BME280;70251;60.008;30.404;2023-11-22T10:01:01;101759.34;;;2.63;53.95
80837;BME280;70251;60.008;30.404;2023-11-22T10:03:27;101756.50;;;2.46;52.95
80837;BME280;70251;60.008;30.404;2023-11-22T10:06:02;101748.84;;;1.67;53.41
80837;BME280;70251;60.008;30.404;2023-11-22T10:08:35;101752.72;;;0.77;53.34
80837;BME280;70251;60.008;30.404;2023-11-22T10:11:03;101757.44;;;0.08;54.67
80837;BME280;70251;60.008;30.404;2023-11-22T10:13:30;101759.88;;;-0.51;54.99
80837;BME280;70251;60.008;30.404;2023-11-22T10:15:55;101761.25;;;-1.05;56.24
80837;BME280;70251;60.008;30.404;2023-11-22T10:18:21;101767.88;;;-1.27;57.23
80837;BME280;70251;60.008;30.404;2023-11-22T10:20:48;101760.56;;;-1.51;56.67
80837;BME280;70251;60.008;30.404;2023-11-22T10:23:18;101756.50;;;-1.65;57.70
80837;BME280;70251;60.008;30.404;2023-11-22T10:25:46;101759.38;;;-1.78;57.19
80837;BME280;70251;60.008;30.404;2023-11-22T10:28:18;101749.31;;;-1.96;57.84
80837;BME280;70251;60.008;30.404;2023-11-22T10:30:48;101744.25;;;-2.05;57.61
80837;BME280;70251;60.008;30.404;2023-11-22T10:33:18;101749.63;;;-2.11;57.67
80837;BME280;70251;60.008;30.404;2023-11-22T10:35:49;101749.78;;;-2.20;58.62
80837;BME280;70251;60.008;30.404;2023-11-22T10:38:20;101744.69;;;-2.26;58.33
80837;BME280;70251;60.008;30.404;2023-11-22T10:40:47;101745.56;;;-2.27;58.01
80837;BME280;70251;60.008;30.404;2023-11-22T10:43:14;101742.25;;;-2.37;58.22
80837;BME280;70251;60.008;30.404;2023-11-22T10:45:43;101741.50;;;-2.44;58.54
80837;BME280;70251;60.008;30.404;2023-11-22T10:48:15;101742.38;;;-2.45;58.79
80837;BME280;70251;60.008;30.404;2023-11-22T10:50:44;101740.72;;;-2.49;58.91
80837;BME280;70251;60.008;30.404;2023-11-22T10:53:16;101736.44;;;-2.53;58.77
80837;BME280;70251;60.008;30.404;2023-11-22T10:55:45;101742.56;;;-2.55;58.20
80837;BME280;70251;60.008;30.404;2023-11-22T10:58:13;101739.97;;;-2.54;58.29
80837;BME280;70251;60.008;30.404;2023-11-22T11:00:42;101740.16;;;-2.64;58.69
80837;BME280;70251;60.008;30.404;2023-11-22T11:03:14;101733.91;;;-2.57;58.30
80837;BME280;70251;60.008;30.404;2023-11-22T11:05:50;101731.44;;;-2.65;58.52
80837;BME280;70251;60.008;30.404;2023-11-22T11:08:18;101726.25;;;-2.66;58.29
80837;BME280;70251;60.008;30.404;2023-11-22T11:10:47;101729.56;;;-2.57;58.90
80837;BME280;70251;60.008;30.404;2023-11-22T11:13:15;101728.56;;;-2.50;57.99
80837;BME280;70251;60.008;30.404;2023-11-22T11:15:42;101731.97;;;-2.46;58.61
80837;BME280;70251;60.008;30.404;2023-11-22T11:18:15;101726.75;;;-2.46;58.34
80837;BME280;70251;60.008;30.404;2023-11-22T11:20:57;101720.53;;;-2.39;58.05
80837;BME280;70251;60.008;30.404;2023-11-22T11:23:25;101715.22;;;-2.34;57.58
80837;BME280;70251;60.008;30.404;2023-11-22T11:25:55;101717.75;;;-2.31;58.24
80837;BME280;70251;60.008;30.404;2023-11-22T11:28:25;101704.56;;;-2.25;57.96
80837;BME280;70251;60.008;30.404;2023-11-22T11:30:54;101705.19;;;-2.13;58.01
80837;BME280;70251;60.008;30.404;2023-11-22T11:33:26;101700.69;;;-2.06;57.35
80837;BME280;70251;60.008;30.404;2023-11-22T11:35:56;101690.31;;;-2.09;57.21
80837;BME280;70251;60.008;30.404;2023-11-22T11:38:30;101686.72;;;-2.02;56.83
80837;BME280;70251;60.008;30.404;2023-11-22T11:41:06;101679.28;;;-1.82;57.22
80837;BME280;70251;60.008;30.404;2023-11-22T11:43:40;101679.91;;;-1.71;56.62
80837;BME280;70251;60.008;30.404;2023-11-22T11:46:07;101671.06;;;-1.66;56.43
80837;BME280;70251;60.008;30.404;2023-11-22T11:48:36;101682.34;;;-1.62;56.70
80837;BME280;70251;60.008;30.404;2023-11-22T11:51:02;101677.06;;;-1.61;56.97
80837;BME280;70251;60.008;30.404;2023-11-22T11:53:27;101677.19;;;-1.67;56.60
80837;BME280;70251;60.008;30.404;2023-11-22T11:55:54;101668.44;;;-1.64;57.07
80837;BME280;70251;60.008;30.404;2023-11-22T11:58:20;101664.13;;;-1.67;57.07
80837;BME280;70251;60.008;30.404;2023-11-22T12:00:45;101660.78;;;-1.73;56.99
80837;BME280;70251;60.008;30.404;2023-11-22T12:03:13;101654.88;;;-1.81;56.83
80837;BME280;70251;60.008;30.404;2023-11-22T12:05:45;101652.44;;;-1.90;56.79
80837;BME280;70251;60.008;30.404;2023-11-22T12:08:13;101647.38;;;-1.96;57.44
80837;BME280;70251;60.008;30.404;2023-11-22T12:10:41;101644.66;;;-1.93;57.22
80837;BME280;70251;60.008;30.404;2023-11-22T12:13:07;101640.88;;;-1.80;56.97
80837;BME280;70251;60.008;30.404;2023-11-22T12:15:34;101622.53;;;-1.79;56.83
80837;BME280;70251;60.008;30.404;2023-11-22T12:18:01;101625.88;;;-1.71;57.24
80837;BME280;70251;60.008;30.404;2023-11-22T12:20:27;101623.97;;;-1.64;56.81
80837;BME280;70251;60.008;30.404;2023-11-22T12:22:59;101627.53;;;-1.68;56.80
80837;BME280;70251;60.008;30.404;2023-11-22T12:25:29;101621.56;;;-1.73;56.81
80837;BME280;70251;60.008;30.404;2023-11-22T12:27:55;101624.28;;;-1.78;56.54
80837;BME280;70251;60.008;30.404;2023-11-22T12:30:33;101601.81;;;-1.86;57.39
80837;BME280;70251;60.008;30.404;2023-11-22T12:33:08;101608.88;;;-1.91;57.31
80837;BME280;70251;60.008;30.404;2023-11-22T12:35:37;101606.56;;;-2.03;57.56
80837;BME280;70251;60.008;30.404;2023-11-22T12:38:05;101604.88;;;-2.06;57.73
80837;BME280;70251;60.008;30.404;2023-11-22T12:40:34;101603.25;;;-2.11;57.44
80837;BME280;70251;60.008;30.404;2023-11-22T12:43:01;101599.59;;;-2.04;58.02